createdAt,value
2018-11-21T00:00:14.087Z,8.47
2018-11-21T00:02:42.534Z,7.47
2018-11-21T00:05:10.926Z,8.07
2018-11-21T00:07:39.377Z,8.67
2018-11-21T00:10:10.001Z,8.63
2018-11-21T00:12:39.026Z,7.47
2018-11-21T00:15:09.189Z,7.80
2018-11-21T00:17:37.559Z,8.87
2018-11-21T00:20:07.366Z,7.83
2018-11-21T00:22:35.713Z,8.20
2018-11-21T00:25:04.097Z,8.17
2018-11-21T00:27:32.682Z,8.33
2018-11-21T00:30:01.030Z,8.53
2018-11-21T00:32:29.488Z,8.60
2018-11-21T00:34:58.116Z,8.27
2018-11-21T00:37:29.390Z,9.00
2018-11-21T00:39:57.732Z,8.90
2018-11-21T00:42:26.094Z,8.67
2018-11-21T00:44:54.598Z,9.07
2018-11-21T00:47:22.903Z,8.57
2018-11-21T00:49:51.281Z,8.73
2018-11-21T00:52:19.695Z,8.90
2018-11-21T00:54:48.098Z,8.97
2018-11-21T00:57:16.464Z,9.13
2018-11-21T00:59:44.825Z,8.77
2018-11-21T01:02:13.301Z,9.33
2018-11-21T01:04:41.697Z,8.67
2018-11-21T01:07:10.092Z,9.00
2018-11-21T01:09:38.430Z,9.00
2018-11-21T01:12:06.814Z,9.00
2018-11-21T01:14:35.305Z,8.30
2018-11-21T01:17:03.833Z,8.77
2018-11-21T01:19:32.177Z,8.67
2018-11-21T01:22:00.562Z,8.87
2018-11-21T01:24:28.924Z,8.50
2018-11-21T01:26:57.248Z,8.23
2018-11-21T01:29:25.658Z,8.33
2018-11-21T01:31:54.394Z,8.17
2018-11-21T01:34:22.762Z,8.40
2018-11-21T01:36:51.198Z,8.50
2018-11-21T01:39:19.559Z,8.00
2018-11-21T01:41:48.300Z,8.53
2018-11-21T01:44:16.641Z,8.07
2018-11-21T01:46:47.899Z,8.47
2018-11-21T01:49:16.287Z,8.47
2018-11-21T01:51:44.723Z,8.20
2018-11-21T01:54:13.070Z,8.53
2018-11-21T01:56:41.419Z,8.80
2018-11-21T01:59:10.402Z,8.07
2018-11-21T02:01:38.931Z,8.30
2018-11-21T02:04:07.326Z,8.10
2018-11-21T02:06:35.877Z,8.10
2018-11-21T02:09:07.667Z,8.40
2018-11-21T02:11:36.059Z,7.53
2018-11-21T02:14:04.410Z,8.03
2018-11-21T02:16:32.885Z,8.03
2018-11-21T02:19:01.244Z,7.53
2018-11-21T02:21:29.586Z,8.57
2018-11-21T02:23:57.972Z,8.03
2018-11-21T02:26:26.866Z,7.97
2018-11-21T02:28:55.201Z,8.30
2018-11-21T02:31:23.525Z,8.40
2018-11-21T02:33:51.904Z,8.03
2018-11-21T02:36:20.342Z,8.50
2018-11-21T02:38:48.844Z,7.93
2018-11-21T02:41:17.239Z,7.87
2018-11-21T02:43:45.798Z,7.83
2018-11-21T02:46:14.303Z,7.73
2018-11-21T02:48:44.236Z,8.10
2018-11-21T02:51:12.909Z,8.10
2018-11-21T02:53:41.258Z,7.60
2018-11-21T02:56:11.349Z,7.93
2018-11-21T02:58:39.746Z,7.87
2018-11-21T03:01:08.045Z,8.30
2018-11-21T03:03:36.544Z,8.17
2018-11-21T03:06:04.889Z,8.03
2018-11-21T03:08:33.256Z,8.70
2018-11-21T03:11:01.636Z,8.00
2018-11-21T03:13:29.973Z,8.27
2018-11-21T03:15:58.345Z,7.70
2018-11-21T03:18:27.204Z,7.43
2018-11-21T03:20:55.703Z,7.80
2018-11-21T03:23:24.046Z,7.13
2018-11-21T03:25:52.396Z,8.03
2018-11-21T03:28:20.772Z,7.67
2018-11-21T03:30:49.139Z,7.77
2018-11-21T03:33:17.462Z,8.13
2018-11-21T03:35:45.860Z,7.43
2018-11-21T03:38:14.433Z,8.00
2018-11-21T03:40:42.815Z,7.93
2018-11-21T03:43:11.167Z,7.70
2018-11-21T03:45:39.653Z,7.37
2018-11-21T03:48:08.308Z,8.07
2018-11-21T03:50:36.665Z,8.30
2018-11-21T03:53:05.180Z,8.17
2018-11-21T03:55:33.519Z,7.73
2018-11-21T03:58:01.879Z,8.03
2018-11-21T04:00:30.230Z,8.27
2018-11-21T04:02:58.599Z,7.80
2018-11-21T04:05:27.073Z,7.73
2018-11-21T04:07:55.450Z,8.50
2018-11-21T04:10:23.977Z,8.00
2018-11-21T04:12:52.315Z,8.57
2018-11-21T04:15:20.655Z,8.40
2018-11-21T04:17:49.029Z,7.73
2018-11-21T04:20:20.255Z,8.37
2018-11-21T04:22:48.588Z,7.97
2018-11-21T04:25:19.840Z,8.33
2018-11-21T04:27:48.332Z,7.70
2018-11-21T04:30:16.661Z,8.27
2018-11-21T04:32:45.087Z,8.20
2018-11-21T04:35:13.473Z,8.10
2018-11-21T04:37:42.084Z,8.50
2018-11-21T04:40:10.444Z,8.33
2018-11-21T04:42:38.980Z,8.20
2018-11-21T04:45:08.864Z,7.80
2018-11-21T04:47:37.238Z,7.93
2018-11-21T04:50:06.340Z,8.57
2018-11-21T04:52:34.656Z,7.97
2018-11-21T04:55:03.193Z,8.40
2018-11-21T04:57:31.528Z,8.27
2018-11-21T04:59:59.879Z,7.73
2018-11-21T05:02:28.252Z,8.53
2018-11-21T05:04:56.627Z,8.50
2018-11-21T05:07:25.315Z,8.80
2018-11-21T05:09:53.801Z,8.30
2018-11-21T05:12:22.210Z,7.97
2018-11-21T05:14:50.600Z,8.93
2018-11-21T05:17:19.083Z,8.77
2018-11-21T05:19:47.468Z,8.63
2018-11-21T05:22:15.881Z,8.10
2018-11-21T05:24:44.358Z,8.13
2018-11-21T05:27:12.722Z,8.40
2018-11-21T05:29:41.161Z,8.50
2018-11-21T05:32:09.494Z,8.50
2018-11-21T05:34:37.850Z,7.43
2018-11-21T05:37:06.560Z,8.43
2018-11-21T05:39:34.940Z,8.60
2018-11-21T05:42:03.347Z,8.33
2018-11-21T05:44:31.810Z,8.73
2018-11-21T05:47:00.182Z,8.70
2018-11-21T05:49:28.557Z,8.57
2018-11-21T05:51:56.972Z,8.73
2018-11-21T05:54:25.343Z,8.20
2018-11-21T05:56:53.710Z,8.33
2018-11-21T05:59:22.131Z,8.40
2018-11-21T06:01:50.586Z,8.37
2018-11-21T06:04:19.816Z,8.10
2018-11-21T06:06:48.190Z,8.23
2018-11-21T06:09:16.587Z,8.63
2018-11-21T06:11:47.764Z,8.93
2018-11-21T06:14:16.259Z,8.97
2018-11-21T06:16:45.241Z,8.40
2018-11-21T06:19:13.612Z,7.97
2018-11-21T06:21:42.017Z,8.43
2018-11-21T06:24:10.710Z,8.80
2018-11-21T06:26:39.134Z,9.07
2018-11-21T06:29:07.535Z,9.77
2018-11-21T06:31:36.209Z,8.40
2018-11-21T06:34:04.561Z,8.67
2018-11-21T06:36:33.995Z,9.33
2018-11-21T06:39:02.390Z,8.70
2018-11-21T06:41:31.148Z,9.33
2018-11-21T06:44:00.263Z,9.00
2018-11-21T06:46:29.293Z,9.00
2018-11-21T06:48:57.673Z,8.50
2018-11-21T06:51:26.025Z,8.50
2018-11-21T06:53:54.367Z,8.87
2018-11-21T06:56:22.773Z,9.17
2018-11-21T06:58:55.106Z,9.23
2018-11-21T07:01:19.904Z,8.80
2018-11-21T07:03:48.303Z,8.50
2018-11-21T07:06:16.653Z,8.87
2018-11-21T07:08:45.072Z,9.00
2018-11-21T07:11:13.539Z,8.90
2018-11-21T07:13:42.232Z,8.67
2018-11-21T07:16:10.590Z,9.60
2018-11-21T07:18:39.562Z,10.27
2018-11-21T07:21:27.374Z,9.20
2018-11-21T07:23:55.808Z,9.23
2018-11-21T07:26:24.913Z,9.90
2018-11-21T07:28:53.531Z,9.27
2018-11-21T07:31:21.915Z,9.60
2018-11-21T07:33:50.450Z,10.10
2018-11-21T07:36:19.756Z,11.27
2018-11-21T07:38:48.388Z,11.23
2018-11-21T07:41:17.248Z,10.87
2018-11-21T07:43:45.672Z,10.40
2018-11-21T07:46:14.219Z,10.53
2018-11-21T07:48:42.634Z,10.03
2018-11-21T07:51:11.952Z,10.47
2018-11-21T07:53:40.373Z,10.57
2018-11-21T07:56:55.840Z,11.17
2018-11-21T07:59:24.571Z,11.00
2018-11-21T08:05:32.965Z,10.43
2018-11-21T08:08:31.900Z,10.93
2018-11-21T08:11:28.134Z,10.03
2018-11-21T08:17:40.097Z,10.77
2018-11-21T10:27:59.476Z,10.80
2018-11-21T10:30:36.845Z,11.17
2018-11-21T10:33:25.858Z,10.73
2018-11-21T10:36:13.020Z,10.77
2018-11-21T10:38:41.928Z,10.93
2018-11-21T10:41:31.332Z,11.20
2018-11-21T10:44:45.546Z,11.10
2018-11-21T10:47:42.918Z,10.47
2018-11-21T10:50:31.751Z,11.00
2018-11-21T10:53:09.550Z,11.00
2018-11-21T10:56:12.418Z,11.07
2018-11-21T10:58:46.168Z,10.97
2018-11-21T11:01:27.950Z,10.63
2018-11-21T11:04:11.697Z,11.00
2018-11-21T11:07:08.265Z,10.30
2018-11-21T11:09:55.812Z,10.33
2018-11-21T11:12:54.673Z,10.60
2018-11-21T11:15:53.333Z,10.37
2018-11-21T11:18:55.104Z,10.33
2018-11-21T11:21:43.168Z,10.10
2018-11-21T11:24:42.007Z,11.20
2018-11-21T11:27:51.681Z,10.80
2018-11-21T11:30:45.667Z,10.23
2018-11-21T11:34:05.744Z,10.30
2018-11-21T11:36:57.948Z,10.93
2018-11-21T11:44:19.115Z,10.10
2018-11-21T11:47:20.482Z,10.40
2018-11-21T11:50:42.855Z,10.40
2018-11-21T11:53:52.053Z,10.30
2018-11-21T11:56:39.934Z,9.87
2018-11-21T12:00:18.645Z,9.77
2018-11-21T12:03:57.862Z,11.00
2018-11-21T12:07:24.808Z,10.63
2018-11-21T12:11:02.241Z,9.60
2018-11-21T12:13:54.349Z,10.03
2018-11-21T12:21:10.133Z,10.00
2018-11-21T12:27:46.776Z,10.00
2018-11-21T12:31:19.045Z,9.97
2018-11-21T12:37:10.777Z,9.83
2018-11-21T12:40:34.648Z,10.37
2018-11-21T12:47:19.873Z,10.70
2018-11-21T12:50:50.490Z,10.23
2018-11-21T12:53:51.928Z,9.73
2018-11-21T12:56:52.439Z,10.33
2018-11-21T13:03:13.587Z,9.37
2018-11-21T13:06:01.643Z,9.33
2018-11-21T13:08:52.127Z,9.33
2018-11-21T13:11:53.033Z,9.37
2018-11-21T13:14:59.734Z,9.93
2018-11-21T17:18:03.606Z,10.10
2018-11-21T17:20:34.015Z,9.60
2018-11-21T17:23:03.469Z,9.80
2018-11-21T17:25:35.717Z,8.93
2018-11-21T17:29:19.724Z,10.13
2018-11-21T17:36:49.293Z,10.20
2018-11-21T17:39:35.125Z,9.43
2018-11-21T17:42:37.188Z,10.33
2018-11-21T17:45:34.169Z,10.70
2018-11-21T17:48:21.311Z,11.20
2018-11-21T17:51:06.223Z,12.23
2018-11-21T17:54:30.649Z,13.27
2018-11-21T17:57:18.635Z,14.40
2018-11-21T18:00:20.120Z,15.23
2018-11-21T18:03:35.566Z,15.13
2018-11-21T18:06:20.644Z,14.63
2018-11-21T18:08:51.110Z,14.43
2018-11-21T18:11:19.676Z,13.00
2018-11-21T18:13:48.075Z,12.83
2018-11-21T18:16:16.569Z,12.63
2018-11-21T18:18:45.008Z,11.67
2018-11-21T18:21:13.959Z,11.50
2018-11-21T18:23:41.941Z,11.50
2018-11-21T18:26:10.314Z,11.77
2018-11-21T18:28:38.698Z,10.00
2018-11-21T18:31:07.116Z,10.30
2018-11-21T18:33:35.492Z,10.37
2018-11-21T18:36:03.955Z,10.23
2018-11-21T18:38:32.319Z,10.33
2018-11-21T18:41:00.738Z,10.27
2018-11-21T18:43:29.075Z,10.50
2018-11-21T18:45:57.510Z,10.23
2018-11-21T18:48:25.891Z,10.07
2018-11-21T18:50:54.237Z,10.03
2018-11-21T18:53:22.629Z,9.87
2018-11-21T18:55:57.703Z,10.60
2018-11-21T18:58:38.521Z,10.17
2018-11-21T19:01:08.778Z,9.70
